createdAt,value
2019-05-20T00:00:29.615Z,6.37
2019-05-20T00:03:00.233Z,6.53
2019-05-20T00:05:32.280Z,6.10
2019-05-20T00:08:03.338Z,6.00
2019-05-20T00:10:33.898Z,7.10
2019-05-20T00:13:04.742Z,6.70
2019-05-20T00:15:35.892Z,8.10
2019-05-20T00:18:06.749Z,6.57
2019-05-20T00:20:37.654Z,6.77
2019-05-20T00:23:08.317Z,6.30
2019-05-20T00:25:39.226Z,5.73
2019-05-20T00:28:09.822Z,5.70
2019-05-20T00:30:40.453Z,7.30
2019-05-20T00:33:11.205Z,6.03
2019-05-20T00:35:42.100Z,7.90
2019-05-20T00:38:13.035Z,6.57
2019-05-20T00:40:44.104Z,6.60
2019-05-20T00:43:14.809Z,6.27
2019-05-20T00:45:45.968Z,6.25
2019-05-20T00:48:16.856Z,7.27
2019-05-20T00:50:47.958Z,6.00
2019-05-20T00:53:18.564Z,6.03
2019-05-20T00:55:49.123Z,8.60
2019-05-20T00:58:19.880Z,7.17
2019-05-20T01:00:50.474Z,6.92
2019-05-20T01:03:21.060Z,6.33
2019-05-20T01:05:51.979Z,5.90
2019-05-20T01:08:22.570Z,9.93
2019-05-20T01:10:53.135Z,6.23
2019-05-20T01:13:23.995Z,10.40
2019-05-20T01:15:55.114Z,6.27
2019-05-20T01:18:25.901Z,5.87
2019-05-20T01:20:57.807Z,11.87
2019-05-20T01:23:28.508Z,7.17
2019-05-20T01:25:59.168Z,8.20
2019-05-20T01:28:29.976Z,5.17
2019-05-20T01:31:00.968Z,9.77
2019-05-20T01:33:32.577Z,6.65
2019-05-20T01:36:03.243Z,7.50
2019-05-20T01:38:34.180Z,6.25
2019-05-20T01:41:05.066Z,6.13
2019-05-20T01:43:35.959Z,6.55
2019-05-20T01:46:06.686Z,6.03
2019-05-20T01:48:37.757Z,10.00
2019-05-20T01:51:08.324Z,6.97
2019-05-20T01:53:39.211Z,5.55
2019-05-20T01:56:09.781Z,5.60
2019-05-20T01:58:40.478Z,5.27
2019-05-20T02:01:11.157Z,4.90
2019-05-20T02:03:42.296Z,7.45
2019-05-20T02:06:12.986Z,6.43
2019-05-20T02:08:43.885Z,5.35
2019-05-20T02:11:14.496Z,4.40
2019-05-20T02:14:01.629Z,4.40
2019-05-20T02:16:32.498Z,5.73
2019-05-20T02:19:03.060Z,5.30
2019-05-20T02:21:34.274Z,4.28
2019-05-20T02:24:05.088Z,5.13
2019-05-20T02:26:36.255Z,4.83
2019-05-20T02:29:07.118Z,5.33
2019-05-20T02:31:37.697Z,7.43
2019-05-20T02:34:08.285Z,4.40
2019-05-20T02:36:39.151Z,4.67
2019-05-20T02:39:10.024Z,4.93
2019-05-20T02:41:40.574Z,4.20
2019-05-20T02:44:11.323Z,5.00
2019-05-20T02:46:42.185Z,5.00
2019-05-20T02:49:13.149Z,4.80
2019-05-20T02:51:44.308Z,6.70
2019-05-20T02:54:15.046Z,6.43
2019-05-20T02:56:45.606Z,4.30
2019-05-20T02:59:16.190Z,5.30
2019-05-20T03:01:47.204Z,4.75
2019-05-20T03:04:18.118Z,4.70
2019-05-20T03:06:48.736Z,4.87
2019-05-20T03:09:19.350Z,5.73
2019-05-20T03:11:49.961Z,4.60
2019-05-20T03:14:20.697Z,4.63
2019-05-20T03:16:51.565Z,6.57
2019-05-20T03:19:22.138Z,7.93
2019-05-20T03:21:52.700Z,5.07
2019-05-20T03:24:23.312Z,4.30
2019-05-20T03:26:54.139Z,5.60
2019-05-20T03:29:24.716Z,5.47
2019-05-20T03:31:55.592Z,5.60
2019-05-20T03:34:45.569Z,5.40
2019-05-20T03:36:58.566Z,7.43
2019-05-20T03:39:29.235Z,5.40
2019-05-20T03:42:00.127Z,6.13
2019-05-20T03:44:32.499Z,6.30
2019-05-20T03:47:03.322Z,6.13
2019-05-20T03:49:34.233Z,6.73
2019-05-20T03:52:05.152Z,6.60
2019-05-20T03:54:35.711Z,6.43
2019-05-20T03:57:06.288Z,6.53
2019-05-20T03:59:36.959Z,7.08
2019-05-20T04:02:07.748Z,7.67
2019-05-20T04:04:38.361Z,6.47
2019-05-20T04:07:09.263Z,7.17
2019-05-20T04:09:40.452Z,7.80
2019-05-20T04:12:11.300Z,8.80
2019-05-20T04:14:42.519Z,7.87
2019-05-20T04:17:13.430Z,8.47
2019-05-20T04:19:44.383Z,7.45
2019-05-20T04:22:15.356Z,8.73
2019-05-20T04:24:46.215Z,8.00
2019-05-20T04:27:16.893Z,8.47
2019-05-20T04:29:47.747Z,8.60
2019-05-20T04:32:18.417Z,8.50
2019-05-20T04:34:49.421Z,7.62
2019-05-20T04:37:20.329Z,8.87
2019-05-20T04:39:51.362Z,9.70
2019-05-20T04:42:22.233Z,8.00
2019-05-20T04:44:53.078Z,8.10
2019-05-20T04:47:25.159Z,7.80
2019-05-20T04:50:02.890Z,8.07
2019-05-20T04:52:33.736Z,8.23
2019-05-20T04:55:04.484Z,10.20
2019-05-20T04:57:35.335Z,9.47
2019-05-20T05:00:08.253Z,9.67
2019-05-20T05:02:42.934Z,9.93
2019-05-20T05:05:11.505Z,13.97
2019-05-20T05:07:42.451Z,11.57
2019-05-20T05:10:13.709Z,12.23
2019-05-20T05:12:44.378Z,11.73
2019-05-20T05:15:15.304Z,11.27
2019-05-20T05:17:46.235Z,12.17
2019-05-20T05:20:18.636Z,11.97
2019-05-20T05:22:49.431Z,13.47
2019-05-20T05:25:20.450Z,12.90
2019-05-20T05:27:51.055Z,13.45
2019-05-20T05:30:21.753Z,14.30
2019-05-20T05:32:52.382Z,13.87
2019-05-20T05:35:24.475Z,14.50
2019-05-20T05:37:55.145Z,14.77
2019-05-20T05:40:30.364Z,13.37
2019-05-20T05:43:01.043Z,11.93
2019-05-20T05:45:34.041Z,12.00
2019-05-20T05:48:04.840Z,14.90
2019-05-20T05:50:35.698Z,14.63
2019-05-20T05:53:06.602Z,14.93
2019-05-20T05:55:37.560Z,15.20
2019-05-20T05:58:08.953Z,15.17
2019-05-20T06:00:39.992Z,14.57
2019-05-20T06:03:10.801Z,15.00
2019-05-20T06:05:41.697Z,15.63
2019-05-20T06:08:12.573Z,15.67
2019-05-20T06:10:45.522Z,15.08
2019-05-20T06:13:15.919Z,13.80
2019-05-20T06:15:46.743Z,15.72
2019-05-20T06:18:17.430Z,16.67
2019-05-20T06:20:48.015Z,14.45
2019-05-20T06:23:18.801Z,20.17
2019-05-20T06:25:49.645Z,14.67
2019-05-20T06:28:20.534Z,16.03
2019-05-20T06:30:51.530Z,13.67
2019-05-20T06:33:22.196Z,15.20
2019-05-20T06:35:53.005Z,14.30
2019-05-20T06:38:42.472Z,15.20
2019-05-20T06:41:13.083Z,13.57
2019-05-20T06:43:43.729Z,14.10
2019-05-20T06:46:14.549Z,13.47
2019-05-20T06:48:45.125Z,17.37
2019-05-20T06:51:15.810Z,14.27
2019-05-20T06:53:46.881Z,19.52
2019-05-20T06:56:17.725Z,16.20
2019-05-20T06:58:48.744Z,12.95
2019-05-20T07:01:19.529Z,15.57
2019-05-20T07:03:50.772Z,12.00
2019-05-20T07:06:21.624Z,13.10
2019-05-20T07:08:52.680Z,15.93
2019-05-20T07:11:23.337Z,11.70
2019-05-20T07:13:53.973Z,11.90
2019-05-20T07:16:24.548Z,12.17
2019-05-20T07:18:55.152Z,14.57
2019-05-20T07:21:27.153Z,14.03
2019-05-20T07:23:57.839Z,11.97
2019-05-20T07:26:28.762Z,13.70
2019-05-20T07:28:59.717Z,11.05
2019-05-20T07:31:30.616Z,11.10
2019-05-20T07:34:01.236Z,10.70
2019-05-20T07:36:32.997Z,10.32
2019-05-20T07:39:05.806Z,11.50
2019-05-20T07:41:40.949Z,10.43
2019-05-20T07:44:09.283Z,12.03
2019-05-20T07:46:39.936Z,13.03
2019-05-20T07:49:11.465Z,10.60
2019-05-20T07:51:43.433Z,11.47
2019-05-20T07:54:14.845Z,12.17
2019-05-20T07:56:48.330Z,10.80
2019-05-20T07:59:23.981Z,10.80
2019-05-20T08:01:55.147Z,10.53
2019-05-20T08:04:25.771Z,9.47
2019-05-20T08:06:56.681Z,11.67
2019-05-20T08:09:27.367Z,9.20
2019-05-20T08:11:57.930Z,9.50
2019-05-20T08:14:28.806Z,10.83
2019-05-20T08:16:59.387Z,10.20
2019-05-20T08:19:29.978Z,9.90
2019-05-20T08:22:00.856Z,10.10
2019-05-20T08:24:33.146Z,9.35
2019-05-20T08:27:03.726Z,11.23
2019-05-20T08:29:34.953Z,8.83
2019-05-20T08:32:06.020Z,10.13
2019-05-20T08:34:38.038Z,9.68
2019-05-20T08:37:09.338Z,8.93
2019-05-20T08:39:40.326Z,9.67
2019-05-20T08:42:10.915Z,9.67
2019-05-20T08:44:41.963Z,9.13
2019-05-20T08:47:12.859Z,10.70
2019-05-20T08:49:44.240Z,12.47
2019-05-20T08:52:14.966Z,12.03
2019-05-20T08:54:45.946Z,9.53
2019-05-20T08:57:16.896Z,8.60
2019-05-20T08:59:47.961Z,8.08
2019-05-20T09:02:18.701Z,9.17
2019-05-20T09:04:49.283Z,8.80
2019-05-20T09:07:19.886Z,8.27
2019-05-20T09:09:51.077Z,9.20
2019-05-20T09:12:21.898Z,9.23
2019-05-20T09:14:52.865Z,9.00
2019-05-20T09:17:23.603Z,8.97
2019-05-20T09:19:54.204Z,9.53
2019-05-20T09:22:24.933Z,9.37
2019-05-20T09:24:55.875Z,11.27
2019-05-20T09:27:26.806Z,8.23
2019-05-20T09:29:57.391Z,9.80
2019-05-20T09:32:28.194Z,8.67
2019-05-20T09:34:59.891Z,8.63
2019-05-20T09:37:30.741Z,9.10
2019-05-20T09:40:01.384Z,8.27
2019-05-20T09:42:33.131Z,9.10
2019-05-20T09:45:04.409Z,8.78
2019-05-20T09:47:35.082Z,8.10
2019-05-20T09:50:06.630Z,8.70
2019-05-20T09:52:37.263Z,8.87
2019-05-20T09:55:07.911Z,9.67
2019-05-20T09:57:39.130Z,11.57
2019-05-20T10:00:10.270Z,9.00
2019-05-20T10:02:41.221Z,10.60
2019-05-20T10:05:20.321Z,9.33
2019-05-20T10:07:51.418Z,10.25
2019-05-20T10:10:22.645Z,15.15
2019-05-20T10:12:53.604Z,14.43
2019-05-20T10:15:25.194Z,11.97
2019-05-20T10:17:55.941Z,11.93
2019-05-20T10:20:26.540Z,14.85
2019-05-20T10:22:57.435Z,11.90
2019-05-20T10:25:28.194Z,10.25
2019-05-20T10:27:59.194Z,10.10
2019-05-20T10:30:29.959Z,12.07
2019-05-20T10:33:00.874Z,14.77
2019-05-20T10:35:33.178Z,16.98
2019-05-20T10:38:04.255Z,13.13
2019-05-20T10:40:35.445Z,13.73
2019-05-20T10:43:06.330Z,12.37
2019-05-20T10:45:37.134Z,13.10
2019-05-20T10:48:09.001Z,11.50
2019-05-20T10:50:40.206Z,12.30
2019-05-20T10:53:10.834Z,13.53
2019-05-20T10:55:41.888Z,14.77
2019-05-20T10:58:12.476Z,14.10
2019-05-20T11:01:00.990Z,12.63
2019-05-20T11:03:15.849Z,12.33
2019-05-20T11:05:46.758Z,11.88
2019-05-20T11:08:17.772Z,10.90
2019-05-20T11:10:48.355Z,11.00
2019-05-20T11:13:19.078Z,11.33
2019-05-20T11:15:49.737Z,11.50
2019-05-20T11:18:20.544Z,11.47
2019-05-20T11:20:51.418Z,11.25
2019-05-20T11:23:26.638Z,13.43
2019-05-20T11:25:58.400Z,14.73
2019-05-20T11:28:32.599Z,11.03
2019-05-20T11:31:03.283Z,13.37
2019-05-20T11:33:34.191Z,14.23
2019-05-20T11:36:05.355Z,10.90
2019-05-20T11:38:37.471Z,11.73
2019-05-20T11:41:08.293Z,10.67
2019-05-20T11:43:39.702Z,11.73
2019-05-20T11:46:10.910Z,10.77
2019-05-20T11:48:44.806Z,11.07
2019-05-20T11:51:15.438Z,10.70
2019-05-20T11:53:46.318Z,10.67
2019-05-20T11:56:17.383Z,10.00
2019-05-20T11:58:48.343Z,10.63
2019-05-20T12:01:19.251Z,11.30
2019-05-20T12:03:51.144Z,10.43
2019-05-20T12:06:21.716Z,11.50
2019-05-20T12:08:53.029Z,13.70
2019-05-20T12:11:24.914Z,12.37
2019-05-20T12:13:55.513Z,14.53
2019-05-20T12:16:26.359Z,14.93
2019-05-20T12:18:57.312Z,11.07
2019-05-20T12:21:32.036Z,13.97
2019-05-20T12:24:06.000Z,11.10
2019-05-20T12:26:37.618Z,12.37
2019-05-20T12:29:18.490Z,13.43
2019-05-20T12:32:03.358Z,13.40
2019-05-20T12:34:49.900Z,12.84
2019-05-20T12:37:25.588Z,17.40
2019-05-20T12:40:06.390Z,13.40
2019-05-20T12:42:28.769Z,18.73
2019-05-20T12:45:06.543Z,19.13
2019-05-20T12:47:43.811Z,18.87
2019-05-20T12:50:23.858Z,16.30
2019-05-20T12:52:54.506Z,17.27
2019-05-20T12:55:56.929Z,22.13
2019-05-20T12:58:28.430Z,22.83
2019-05-20T13:00:59.472Z,20.73
2019-05-20T13:03:30.312Z,23.87
2019-05-20T13:06:04.959Z,25.67
2019-05-20T13:08:35.650Z,21.97
2019-05-20T13:11:06.380Z,23.70
2019-05-20T13:13:37.720Z,21.68
2019-05-20T13:16:08.546Z,23.20
2019-05-20T13:18:53.507Z,21.07
2019-05-20T13:21:12.507Z,19.83
2019-05-20T13:23:43.528Z,18.00
2019-05-20T13:26:14.737Z,20.77
2019-05-20T13:28:59.478Z,22.60
2019-05-20T13:31:47.245Z,20.13
2019-05-20T13:34:18.784Z,20.30
2019-05-20T13:36:49.563Z,18.70
2019-05-20T13:39:20.400Z,19.63
2019-05-20T13:41:51.553Z,21.80
2019-05-20T13:44:22.420Z,24.07
2019-05-20T13:47:22.478Z,28.00
2019-05-20T13:49:33.628Z,25.45
2019-05-20T13:54:41.448Z,22.17
2019-05-20T13:57:13.375Z,25.77
2019-05-20T14:00:03.042Z,27.20
2019-05-20T14:03:18.127Z,28.63
2019-05-20T14:06:30.861Z,29.23
2019-05-20T14:09:07.891Z,30.87
2019-05-20T14:11:38.904Z,28.17
2019-05-20T14:14:09.553Z,27.57
2019-05-20T14:16:40.795Z,26.52
2019-05-20T14:19:11.644Z,28.43
2019-05-20T14:21:42.751Z,30.00
2019-05-20T14:24:13.613Z,33.73
2019-05-20T14:26:44.918Z,30.90
2019-05-20T14:29:16.244Z,32.60
2019-05-20T14:31:47.188Z,34.30
2019-05-20T14:34:18.146Z,31.70
2019-05-20T14:36:52.615Z,30.20
2019-05-20T14:39:24.519Z,31.83
2019-05-20T14:41:55.947Z,32.30
2019-05-20T14:44:26.578Z,29.73
2019-05-20T14:46:57.742Z,30.70
2019-05-20T14:49:29.049Z,28.70
2019-05-20T14:52:01.100Z,32.43
2019-05-20T14:54:35.028Z,26.23
2019-05-20T14:57:05.800Z,29.00
2019-05-20T14:59:36.855Z,30.77
2019-05-20T15:02:14.404Z,26.53
2019-05-20T15:04:50.948Z,26.90
2019-05-20T15:07:47.436Z,27.47
2019-05-20T15:10:26.118Z,30.47
2019-05-20T15:13:07.649Z,31.73
2019-05-20T15:16:07.831Z,25.88
2019-05-20T15:18:58.028Z,26.65
2019-05-20T15:21:51.136Z,24.47
2019-05-20T15:24:53.166Z,28.17
2019-05-20T15:27:27.325Z,24.20
2019-05-20T15:29:59.112Z,23.87
2019-05-20T15:32:31.553Z,25.10
2019-05-20T15:35:02.709Z,21.93
2019-05-20T15:37:34.146Z,25.37
2019-05-20T15:40:05.395Z,23.83
2019-05-20T15:42:36.418Z,22.70
2019-05-20T15:45:08.449Z,31.83
2019-05-20T15:47:41.691Z,25.53
2019-05-20T15:50:12.706Z,23.70
2019-05-20T15:52:44.254Z,25.65
2019-05-20T15:55:24.421Z,24.83
2019-05-20T15:57:58.771Z,22.70
2019-05-20T16:00:30.510Z,23.33
2019-05-20T16:03:01.449Z,27.30
2019-05-20T16:05:33.412Z,30.07
2019-05-20T16:08:04.281Z,24.50
2019-05-20T16:10:36.643Z,29.40
2019-05-20T16:13:10.019Z,31.63
2019-05-20T16:15:41.075Z,22.33
2019-05-20T16:18:12.159Z,27.50
2019-05-20T16:20:43.096Z,30.93
2019-05-20T16:23:13.766Z,27.50
2019-05-20T16:25:44.567Z,26.00
2019-05-20T16:28:15.378Z,20.37
2019-05-20T16:30:45.988Z,20.87
2019-05-20T16:33:16.804Z,23.53
2019-05-20T16:35:48.181Z,23.90
2019-05-20T16:38:18.866Z,19.77
2019-05-20T16:40:50.714Z,27.85
2019-05-20T16:43:22.923Z,26.07
2019-05-20T16:45:53.867Z,25.67
2019-05-20T16:48:24.740Z,26.73
2019-05-20T16:50:55.882Z,22.83
2019-05-20T16:53:26.662Z,23.00
2019-05-20T16:55:58.959Z,23.43
2019-05-20T16:58:35.820Z,21.80
2019-05-20T17:01:06.800Z,21.70
2019-05-20T17:03:38.479Z,20.00
2019-05-20T17:06:15.624Z,23.13
2019-05-20T17:08:47.656Z,24.40
2019-05-20T17:11:19.510Z,21.87
2019-05-20T17:13:50.522Z,19.40
2019-05-20T17:16:22.899Z,21.27
2019-05-20T17:18:56.431Z,19.77
2019-05-20T17:21:31.092Z,19.70
2019-05-20T17:24:16.737Z,18.37
2019-05-20T17:29:58.792Z,17.92
2019-05-20T17:32:52.003Z,17.63
2019-05-20T17:35:28.162Z,18.70
2019-05-20T17:38:22.444Z,18.73
2019-05-20T17:40:54.885Z,19.97
2019-05-20T17:43:30.431Z,17.53
2019-05-20T17:46:04.582Z,20.33
2019-05-20T17:48:48.386Z,24.27
2019-05-20T17:51:30.673Z,27.57
2019-05-20T17:54:15.371Z,21.10
2019-05-20T17:57:24.434Z,23.45
2019-05-20T18:00:43.125Z,19.90
2019-05-20T18:04:04.039Z,21.57
2019-05-20T18:07:35.245Z,21.20
2019-05-20T18:11:03.251Z,21.73
2019-05-20T18:14:05.266Z,22.90
2019-05-20T18:17:17.073Z,21.30
2019-05-20T18:19:48.218Z,25.53
2019-05-20T18:22:23.819Z,22.77
2019-05-20T18:24:55.457Z,24.93
2019-05-20T18:27:26.415Z,24.70
2019-05-20T18:29:57.382Z,27.80
2019-05-20T18:32:28.079Z,26.63
2019-05-20T18:35:22.113Z,20.70
2019-05-20T18:37:53.119Z,23.93
2019-05-20T18:40:25.039Z,25.23
2019-05-20T18:42:56.137Z,27.80
2019-05-20T18:45:27.279Z,19.50
2019-05-20T18:47:58.837Z,24.37
2019-05-20T18:50:30.199Z,23.87
2019-05-20T18:53:05.188Z,22.43
2019-05-20T18:55:36.707Z,27.87
2019-05-20T18:58:08.944Z,21.20
2019-05-20T19:00:42.978Z,26.37
2019-05-20T19:03:15.936Z,27.10
2019-05-20T19:05:46.707Z,24.02
2019-05-20T19:08:22.008Z,26.40
2019-05-20T19:11:24.010Z,30.87
2019-05-20T19:13:58.604Z,25.43
2019-05-20T19:16:33.148Z,30.23
2019-05-20T19:19:07.487Z,31.23
2019-05-20T19:21:46.280Z,30.20
2019-05-20T19:24:38.633Z,28.20
2019-05-20T19:27:11.734Z,30.00
2019-05-20T19:29:42.640Z,28.90
2019-05-20T19:32:15.142Z,27.40
2019-05-20T19:34:46.851Z,28.32
2019-05-20T19:37:17.667Z,28.67
2019-05-20T19:39:52.142Z,27.63
2019-05-20T19:42:26.091Z,24.70
2019-05-20T19:44:58.425Z,26.57
2019-05-20T19:47:29.201Z,27.63
2019-05-20T19:50:02.450Z,27.87
2019-05-20T19:52:36.061Z,23.30
2019-05-20T19:55:08.760Z,26.57
2019-05-20T19:57:41.536Z,29.00
2019-05-20T20:00:22.440Z,22.47
2019-05-20T20:02:58.782Z,34.77
2019-05-20T20:08:39.920Z,30.37
2019-05-20T20:11:17.985Z,25.23
2019-05-20T20:13:52.547Z,23.15
2019-05-20T20:16:28.589Z,21.30
2019-05-20T20:19:14.744Z,24.40
2019-05-20T20:21:56.972Z,23.97
2019-05-20T20:24:37.824Z,22.70
2019-05-20T20:27:11.901Z,24.63
2019-05-20T20:29:45.366Z,28.47
2019-05-20T20:32:37.803Z,28.40
2019-05-20T20:35:17.338Z,28.67
2019-05-20T20:38:03.335Z,30.50
2019-05-20T20:41:21.851Z,32.80
2019-05-20T20:44:08.974Z,33.92
2019-05-20T20:47:13.927Z,31.60
2019-05-20T20:50:11.899Z,42.17
2019-05-20T20:52:55.162Z,33.30
2019-05-20T20:55:59.588Z,30.53
2019-05-20T20:58:52.360Z,27.65
2019-05-20T21:01:54.223Z,28.70
2019-05-20T21:04:47.288Z,28.90
2019-05-20T21:07:52.388Z,26.63
2019-05-20T21:10:39.897Z,32.17
2019-05-20T21:14:08.810Z,29.53
2019-05-20T21:17:25.243Z,31.67
2019-05-20T21:22:32.380Z,30.40
2019-05-20T21:26:10.973Z,29.70
2019-05-20T21:32:51.316Z,33.07
2019-05-20T21:36:04.456Z,29.27
2019-05-20T21:39:19.895Z,34.13
2019-05-20T21:42:44.041Z,36.13
2019-05-20T21:50:09.774Z,33.20
2019-05-20T21:53:22.936Z,30.33
2019-05-20T22:01:55.929Z,32.57
2019-05-20T22:15:36.601Z,33.13
2019-05-20T22:18:56.688Z,34.13
2019-05-20T22:25:21.182Z,32.37
2019-05-20T22:25:38.557Z,33.30
2019-05-20T22:27:51.761Z,32.70
2019-05-20T22:30:22.860Z,32.60
2019-05-20T22:32:53.809Z,31.90
2019-05-20T22:35:24.403Z,29.20
2019-05-20T22:37:55.698Z,33.20
2019-05-20T22:40:26.574Z,28.30
2019-05-20T22:42:57.549Z,30.20
2019-05-20T22:45:28.336Z,31.37
2019-05-20T22:47:58.937Z,28.87
2019-05-20T22:50:29.631Z,27.43
2019-05-20T22:53:00.937Z,25.40
2019-05-20T22:55:31.553Z,23.07
2019-05-20T22:58:02.413Z,24.43
2019-05-20T23:00:34.331Z,27.17
2019-05-20T23:03:04.923Z,28.63
2019-05-20T23:05:35.813Z,26.10
2019-05-20T23:08:06.365Z,23.83
2019-05-20T23:10:37.006Z,25.10
2019-05-20T23:13:07.571Z,23.70
2019-05-20T23:15:38.539Z,27.52
2019-05-20T23:18:09.513Z,29.03
2019-05-20T23:20:40.649Z,20.25
2019-05-20T23:23:11.382Z,18.10
2019-05-20T23:25:42.578Z,18.45
2019-05-20T23:28:13.462Z,20.63
2019-05-20T23:30:44.105Z,20.50
2019-05-20T23:33:14.704Z,23.37
2019-05-20T23:35:45.677Z,21.50
2019-05-20T23:38:16.493Z,20.43
2019-05-20T23:40:47.044Z,19.62
2019-05-20T23:43:17.638Z,19.70
2019-05-20T23:45:48.554Z,17.63
2019-05-20T23:48:19.441Z,20.87
2019-05-20T23:50:50.083Z,22.63
2019-05-20T23:53:20.727Z,24.20
2019-05-20T23:55:51.723Z,20.43
2019-05-20T23:58:22.615Z,21.10
